createdAt,value
2023-04-20T00:00:24.140Z,4.56
2023-04-20T00:03:45.762Z,4.39
2023-04-20T00:06:47.757Z,4.23
2023-04-20T00:09:49.426Z,4.02
2023-04-20T00:12:51.242Z,3.87
2023-04-20T00:15:52.988Z,3.80
2023-04-20T00:18:54.680Z,3.72
2023-04-20T00:21:56.205Z,3.65
2023-04-20T00:24:57.863Z,3.59
2023-04-20T00:28:00.102Z,3.55
2023-04-20T00:31:01.990Z,3.57
2023-04-20T00:34:03.586Z,3.70
2023-04-20T00:37:05.252Z,3.85
2023-04-20T00:40:08.195Z,3.89
2023-04-20T00:43:14.064Z,3.83
2023-04-20T00:46:16.037Z,3.82
2023-04-20T00:49:17.814Z,3.85
2023-04-20T00:52:20.125Z,3.85
2023-04-20T00:55:22.555Z,3.80
2023-04-20T00:58:24.204Z,3.75
2023-04-20T01:01:25.855Z,3.76
2023-04-20T01:04:27.801Z,3.78
2023-04-20T01:07:29.890Z,3.79
2023-04-20T01:10:31.703Z,3.81
2023-04-20T01:13:33.306Z,3.84
2023-04-20T01:16:34.983Z,3.91
2023-04-20T01:19:36.895Z,4.00
2023-04-20T01:22:48.996Z,4.09
2023-04-20T01:25:50.617Z,4.16
2023-04-20T01:28:52.201Z,4.23
2023-04-20T01:31:54.501Z,4.37
2023-04-20T01:34:56.003Z,4.45
2023-04-20T01:37:57.755Z,4.49
2023-04-20T01:40:59.403Z,4.56
2023-04-20T01:44:00.915Z,4.63
2023-04-20T01:47:02.767Z,4.70
2023-04-20T01:50:04.453Z,4.77
2023-04-20T01:53:06.206Z,4.79
2023-04-20T01:56:07.946Z,4.83
2023-04-20T01:59:09.570Z,4.86
2023-04-20T02:02:11.139Z,4.90
2023-04-20T02:05:13.103Z,4.96
2023-04-20T02:08:14.750Z,5.00
2023-04-20T02:11:16.541Z,5.04
2023-04-20T02:14:18.259Z,5.07
2023-04-20T02:17:19.945Z,5.12
2023-04-20T02:20:21.865Z,5.16
2023-04-20T02:23:23.565Z,5.19
2023-04-20T02:26:25.204Z,5.13
2023-04-20T02:29:26.942Z,5.10
2023-04-20T02:32:28.707Z,5.10
2023-04-20T02:35:30.417Z,5.14
2023-04-20T02:38:32.066Z,5.20
2023-04-20T02:41:33.621Z,5.24
2023-04-20T02:44:35.620Z,5.24
2023-04-20T02:47:37.217Z,5.24
2023-04-20T02:50:38.776Z,5.27
2023-04-20T02:53:40.364Z,5.30
2023-04-20T02:56:41.917Z,5.33
2023-04-20T02:59:43.563Z,5.36
2023-04-20T03:02:45.504Z,5.38
2023-04-20T03:05:47.378Z,5.40
2023-04-20T03:08:48.996Z,5.42
2023-04-20T03:11:50.721Z,5.43
2023-04-20T03:14:52.362Z,5.44
2023-04-20T03:17:53.853Z,5.45
2023-04-20T03:20:55.596Z,5.46
2023-04-20T03:23:57.421Z,5.46
2023-04-20T03:26:59.097Z,5.46
2023-04-20T03:30:00.760Z,5.44
2023-04-20T03:33:02.431Z,5.43
2023-04-20T03:36:04.408Z,5.43
2023-04-20T03:39:06.593Z,5.44
2023-04-20T03:42:08.290Z,5.46
2023-04-20T03:45:09.979Z,5.44
2023-04-20T03:48:11.609Z,5.42
2023-04-20T03:51:13.179Z,5.42
2023-04-20T03:54:14.994Z,5.42
2023-04-20T03:57:16.762Z,5.40
2023-04-20T04:00:18.969Z,5.41
2023-04-20T04:03:21.026Z,5.42
2023-04-20T04:06:23.018Z,5.36
2023-04-20T04:09:24.973Z,5.20
2023-04-20T04:12:26.583Z,5.14
2023-04-20T04:15:28.118Z,5.17
2023-04-20T04:18:31.360Z,5.20
2023-04-20T04:21:32.986Z,5.15
2023-04-20T04:24:34.664Z,5.13
2023-04-20T04:27:36.548Z,5.11
2023-04-20T04:30:41.365Z,5.13
2023-04-20T04:33:43.586Z,5.16
2023-04-20T04:36:45.288Z,5.18
2023-04-20T04:39:46.981Z,5.23
2023-04-20T04:42:48.505Z,5.25
2023-04-20T04:45:50.338Z,5.36
2023-04-20T04:48:51.936Z,5.48
2023-04-20T04:51:53.654Z,5.60
2023-04-20T04:54:55.450Z,5.68
2023-04-20T04:57:57.140Z,5.74
2023-04-20T05:00:58.758Z,5.89
2023-04-20T05:04:00.828Z,6.00
2023-04-20T05:07:02.627Z,6.12
2023-04-20T05:10:05.353Z,6.25
2023-04-20T05:13:06.942Z,6.37
2023-04-20T05:16:08.548Z,6.44
2023-04-20T05:19:10.197Z,6.51
2023-04-20T05:22:11.950Z,6.58
2023-04-20T05:25:14.286Z,6.61
2023-04-20T05:28:16.076Z,6.68
2023-04-20T05:31:17.719Z,6.71
2023-04-20T05:34:19.403Z,6.81
2023-04-20T05:37:21.121Z,6.91
2023-04-20T05:40:23.024Z,6.99
2023-04-20T05:43:24.703Z,7.08
2023-04-20T05:46:26.539Z,7.20
2023-04-20T05:49:28.455Z,7.40
2023-04-20T05:52:30.267Z,7.60
2023-04-20T05:55:32.198Z,7.83
2023-04-20T05:58:34.438Z,8.07
2023-04-20T06:01:36.779Z,8.24
2023-04-20T06:04:38.716Z,8.27
2023-04-20T06:07:40.695Z,8.36
2023-04-20T06:10:42.421Z,8.55
2023-04-20T06:13:44.190Z,8.80
2023-04-20T06:16:45.859Z,9.04
2023-04-20T06:19:47.969Z,9.42
2023-04-20T06:22:49.898Z,9.96
2023-04-20T06:25:51.649Z,10.04
2023-04-20T06:28:53.430Z,10.47
2023-04-20T06:31:55.352Z,11.03
2023-04-20T06:34:57.239Z,11.35
2023-04-20T06:37:59.538Z,11.05
2023-04-20T06:41:01.172Z,10.99
2023-04-20T06:44:02.775Z,11.11
2023-04-20T06:47:04.634Z,11.20
2023-04-20T06:50:07.636Z,11.17
2023-04-20T06:53:09.265Z,11.29
2023-04-20T06:56:10.857Z,11.49
2023-04-20T06:59:12.556Z,11.89
2023-04-20T07:02:14.413Z,12.12
2023-04-20T07:05:17.376Z,12.28
2023-04-20T07:08:19.278Z,12.19
2023-04-20T07:11:20.880Z,12.16
2023-04-20T07:14:22.475Z,12.32
2023-04-20T07:17:28.077Z,12.51
2023-04-20T07:20:29.756Z,12.68
2023-04-20T07:23:31.493Z,12.58
2023-04-20T07:26:33.130Z,12.39
2023-04-20T07:29:34.801Z,12.30
2023-04-20T07:32:37.131Z,12.16
2023-04-20T07:35:38.844Z,11.98
2023-04-20T07:38:40.495Z,12.07
2023-04-20T07:41:42.108Z,12.27
2023-04-20T07:44:43.979Z,12.23
2023-04-20T07:47:45.714Z,12.25
2023-04-20T07:50:47.342Z,12.37
2023-04-20T07:53:49.005Z,12.46
2023-04-20T07:56:50.649Z,12.67
2023-04-20T07:59:52.434Z,12.97
2023-04-20T08:02:54.183Z,13.34
2023-04-20T08:05:56.122Z,13.84
2023-04-20T08:08:57.820Z,14.24
2023-04-20T08:11:59.850Z,14.66
2023-04-20T08:15:01.515Z,15.22
2023-04-20T08:18:03.434Z,15.48
2023-04-20T08:21:05.368Z,15.31
2023-04-20T08:24:08.183Z,15.56
2023-04-20T08:27:09.903Z,15.67
2023-04-20T08:30:12.118Z,15.72
2023-04-20T08:33:13.949Z,16.15
2023-04-20T08:36:15.810Z,16.52
2023-04-20T08:39:21.897Z,16.60
2023-04-20T08:42:23.604Z,16.48
2023-04-20T08:45:26.540Z,16.27
2023-04-20T08:48:34.943Z,15.85
2023-04-20T08:51:36.606Z,15.66
2023-04-20T08:54:42.956Z,15.61
2023-04-20T08:57:48.780Z,15.81
2023-04-20T09:00:51.369Z,16.14
2023-04-20T09:03:53.092Z,16.67
2023-04-20T09:06:56.245Z,16.87
2023-04-20T09:10:00.338Z,16.65
2023-04-20T09:13:02.029Z,16.15
2023-04-20T09:16:11.281Z,15.80
2023-04-20T09:19:14.067Z,15.48
2023-04-20T09:22:15.869Z,15.13
2023-04-20T09:25:18.348Z,14.70
2023-04-20T09:28:20.274Z,14.44
2023-04-20T09:31:22.630Z,14.27
2023-04-20T09:34:24.313Z,14.20
2023-04-20T09:37:25.923Z,14.17
2023-04-20T09:40:27.777Z,14.18
2023-04-20T09:43:29.933Z,14.11
2023-04-20T09:46:33.713Z,14.01
2023-04-20T09:49:35.505Z,13.89
2023-04-20T09:52:37.973Z,13.72
2023-04-20T09:55:39.759Z,13.58
2023-04-20T09:58:42.688Z,13.50
2023-04-20T10:01:44.532Z,13.47
2023-04-20T10:04:56.384Z,13.49
2023-04-20T10:08:01.488Z,13.55
2023-04-20T10:11:03.121Z,13.63
2023-04-20T10:14:25.380Z,13.71
2023-04-20T10:17:31.714Z,13.80
2023-04-20T10:20:34.599Z,13.85
2023-04-20T10:23:50.440Z,13.98
2023-04-20T10:26:52.063Z,14.15
2023-04-20T10:29:53.856Z,14.35
2023-04-20T10:33:09.507Z,14.55
2023-04-20T10:36:23.135Z,14.78
2023-04-20T10:39:24.944Z,15.18
2023-04-20T10:42:26.853Z,15.47
2023-04-20T10:45:35.866Z,15.61
2023-04-20T10:48:37.535Z,15.63
2023-04-20T10:51:46.963Z,15.71
2023-04-20T10:54:48.560Z,15.83
2023-04-20T10:57:51.180Z,16.42
2023-04-20T11:01:00.582Z,17.55
2023-04-20T11:04:02.884Z,18.26
2023-04-20T11:07:06.730Z,18.50
2023-04-20T11:10:08.577Z,18.98
2023-04-20T11:13:23.196Z,19.18
2023-04-20T11:16:30.446Z,19.17
2023-04-20T11:19:38.463Z,19.01
2023-04-20T11:22:41.419Z,19.55
2023-04-20T11:25:53.940Z,19.79
2023-04-20T11:28:56.482Z,19.92
2023-04-20T11:31:59.591Z,20.12
2023-04-20T11:35:07.389Z,20.28
2023-04-20T11:38:09.387Z,20.24
2023-04-20T11:41:10.954Z,19.98
2023-04-20T11:44:12.671Z,19.79
2023-04-20T11:47:14.379Z,19.72
2023-04-20T11:50:16.303Z,19.73
2023-04-20T11:53:18.006Z,19.43
2023-04-20T11:56:19.648Z,19.47
2023-04-20T11:59:21.622Z,20.12
2023-04-20T12:02:23.840Z,20.27
2023-04-20T12:05:25.717Z,20.46
2023-04-20T12:08:27.278Z,21.17
2023-04-20T12:11:29.321Z,21.64
2023-04-20T12:14:31.038Z,21.64
2023-04-20T12:17:32.645Z,21.89
2023-04-20T12:20:34.505Z,22.10
2023-04-20T12:23:36.114Z,22.21
2023-04-20T12:26:38.975Z,22.17
2023-04-20T12:29:40.763Z,21.95
2023-04-20T12:32:42.502Z,21.34
2023-04-20T12:35:44.371Z,20.82
2023-04-20T12:38:46.213Z,20.40
2023-04-20T12:41:47.912Z,19.99
2023-04-20T12:44:53.039Z,20.13
2023-04-20T12:47:56.756Z,20.20
2023-04-20T12:50:59.684Z,20.83
2023-04-20T12:54:01.306Z,21.04
2023-04-20T12:57:03.071Z,21.24
2023-04-20T13:00:06.211Z,21.81
2023-04-20T13:03:07.932Z,22.27
2023-04-20T13:06:13.635Z,22.75
2023-04-20T13:09:15.969Z,23.33
2023-04-20T13:12:17.631Z,21.93
2023-04-20T13:15:31.907Z,21.13
2023-04-20T13:18:39.667Z,20.57
2023-04-20T13:21:41.703Z,20.03
2023-04-20T13:24:43.483Z,19.51
2023-04-20T13:27:45.135Z,19.04
2023-04-20T13:30:47.738Z,18.79
2023-04-20T13:33:49.408Z,18.46
2023-04-20T13:36:51.117Z,18.10
2023-04-20T13:39:52.845Z,17.90
2023-04-20T13:42:54.452Z,17.77
2023-04-20T13:45:56.186Z,17.59
2023-04-20T13:48:57.886Z,17.36
2023-04-20T13:51:59.619Z,17.17
2023-04-20T13:55:01.360Z,17.03
2023-04-20T13:58:02.998Z,16.87
2023-04-20T14:01:09.048Z,16.83
2023-04-20T14:04:10.935Z,16.80
2023-04-20T14:07:12.589Z,16.72
2023-04-20T14:10:14.381Z,16.80
2023-04-20T14:13:16.288Z,17.00
2023-04-20T14:16:18.117Z,17.12
2023-04-20T14:19:19.801Z,17.28
2023-04-20T14:22:21.483Z,17.59
2023-04-20T14:25:23.178Z,17.76
2023-04-20T14:28:24.866Z,18.81
2023-04-20T14:31:26.504Z,19.34
2023-04-20T14:34:28.227Z,19.36
2023-04-20T14:37:30.306Z,19.10
2023-04-20T14:40:32.211Z,18.64
2023-04-20T14:43:33.878Z,18.41
2023-04-20T14:46:35.676Z,18.21
2023-04-20T14:49:37.471Z,18.04
2023-04-20T14:52:39.059Z,17.98
2023-04-20T14:55:40.701Z,17.92
2023-04-20T14:58:42.297Z,17.83
2023-04-20T15:01:54.922Z,17.74
2023-04-20T15:05:05.263Z,17.77
2023-04-20T15:08:10.615Z,17.91
2023-04-20T15:11:12.238Z,18.33
2023-04-20T15:14:13.811Z,18.60
2023-04-20T15:17:15.513Z,18.75
2023-04-20T15:20:17.380Z,19.16
2023-04-20T15:23:19.066Z,19.48
2023-04-20T15:26:20.740Z,19.13
2023-04-20T15:29:22.622Z,19.19
2023-04-20T15:32:25.453Z,19.73
2023-04-20T15:35:27.409Z,20.19
2023-04-20T15:38:29.059Z,20.27
2023-04-20T15:41:30.667Z,20.22
2023-04-20T15:44:32.795Z,19.81
2023-04-20T15:47:34.536Z,19.31
2023-04-20T15:50:36.375Z,18.74
2023-04-20T15:53:38.339Z,18.23
2023-04-20T15:56:39.996Z,17.81
2023-04-20T15:59:41.662Z,17.39
2023-04-20T16:02:43.409Z,17.05
2023-04-20T16:05:45.181Z,16.72
2023-04-20T16:08:48.463Z,16.42
2023-04-20T16:11:50.523Z,16.21
2023-04-20T16:14:53.850Z,16.18
2023-04-20T16:17:55.855Z,16.04
2023-04-20T16:20:57.863Z,15.84
2023-04-20T16:23:59.546Z,15.67
2023-04-20T16:27:01.243Z,15.48
2023-04-20T16:30:03.325Z,15.26
2023-04-20T16:33:05.071Z,15.03
2023-04-20T16:36:07.033Z,14.68
2023-04-20T16:39:08.638Z,14.19
2023-04-20T16:42:10.376Z,13.87
2023-04-20T16:45:12.626Z,13.67
2023-04-20T16:48:14.238Z,13.47
2023-04-20T16:51:15.891Z,13.28
2023-04-20T16:54:17.680Z,13.14
2023-04-20T16:57:19.727Z,12.98
2023-04-20T17:00:21.612Z,12.77
2023-04-20T17:03:23.547Z,12.59
2023-04-20T17:06:25.734Z,12.44
2023-04-20T17:09:27.788Z,12.28
2023-04-20T17:12:29.468Z,12.18
2023-04-20T17:15:31.296Z,12.10
2023-04-20T17:18:33.221Z,12.03
2023-04-20T17:21:34.811Z,11.96
2023-04-20T17:24:36.423Z,11.91
2023-04-20T17:27:38.198Z,11.83
2023-04-20T17:30:40.604Z,11.75
2023-04-20T17:33:42.333Z,11.73
2023-04-20T17:36:44.013Z,11.67
2023-04-20T17:39:45.915Z,11.61
2023-04-20T17:42:47.578Z,11.55
2023-04-20T17:45:49.855Z,11.49
2023-04-20T17:48:51.529Z,11.46
2023-04-20T17:51:53.164Z,11.34
2023-04-20T17:54:54.849Z,11.20
2023-04-20T17:57:56.751Z,11.06
2023-04-20T18:00:58.482Z,10.90
2023-04-20T18:04:00.878Z,10.81
2023-04-20T18:07:03.798Z,10.65
2023-04-20T18:10:06.161Z,10.53
2023-04-20T18:13:07.908Z,10.47
2023-04-20T18:16:09.982Z,10.31
2023-04-20T18:19:11.790Z,10.17
2023-04-20T18:22:13.450Z,10.10
2023-04-20T18:25:15.144Z,9.98
2023-04-20T18:28:16.973Z,9.91
2023-04-20T18:31:18.882Z,9.92
2023-04-20T18:34:20.923Z,9.88
2023-04-20T18:37:22.741Z,9.85
2023-04-20T18:40:24.628Z,9.81
2023-04-20T18:43:26.258Z,9.76
2023-04-20T18:46:28.043Z,9.65
2023-04-20T18:49:29.738Z,9.54
2023-04-20T18:52:34.773Z,9.53
2023-04-20T18:55:36.940Z,9.49
2023-04-20T18:58:38.959Z,9.42
2023-04-20T19:01:40.767Z,9.33
2023-04-20T19:04:42.810Z,9.26
2023-04-20T19:07:44.456Z,9.21
2023-04-20T19:10:46.102Z,9.19
2023-04-20T19:13:47.746Z,9.22
2023-04-20T19:16:49.450Z,9.21
2023-04-20T19:19:51.367Z,9.09
2023-04-20T19:22:53.033Z,9.02
2023-04-20T19:25:54.771Z,8.97
2023-04-20T19:28:58.920Z,8.92
2023-04-20T19:32:00.746Z,8.83
2023-04-20T19:35:02.545Z,8.76
2023-04-20T19:38:04.354Z,8.69
2023-04-20T19:41:06.371Z,8.63
2023-04-20T19:44:08.065Z,8.62
2023-04-20T19:47:09.991Z,8.63
2023-04-20T19:50:12.167Z,8.66
2023-04-20T19:53:14.004Z,8.66
2023-04-20T19:56:15.711Z,8.62
2023-04-20T19:59:17.683Z,8.55
2023-04-20T20:02:19.686Z,8.47
2023-04-20T20:05:21.912Z,8.35
2023-04-20T20:08:23.677Z,8.30
2023-04-20T20:11:25.351Z,8.23
2023-04-20T20:14:27.078Z,8.16
2023-04-20T20:17:28.715Z,8.11
2023-04-20T20:20:30.570Z,8.04
2023-04-20T20:23:32.264Z,7.97
2023-04-20T20:26:34.058Z,7.90
2023-04-20T20:29:35.723Z,7.84
2023-04-20T20:32:37.398Z,7.78
2023-04-20T20:35:39.088Z,7.79
2023-04-20T20:38:40.798Z,7.75
2023-04-20T20:41:42.544Z,7.70
2023-04-20T20:44:44.476Z,7.70
2023-04-20T20:47:46.510Z,7.78
2023-04-20T20:50:48.331Z,7.79
2023-04-20T20:53:49.978Z,7.75
2023-04-20T20:56:51.694Z,7.76
2023-04-20T20:59:53.659Z,7.78
2023-04-20T21:02:55.714Z,7.78
2023-04-20T21:05:57.454Z,7.70
2023-04-20T21:08:59.381Z,7.58
2023-04-20T21:12:01.044Z,7.47
2023-04-20T21:15:03.023Z,7.36
2023-04-20T21:18:04.715Z,7.29
2023-04-20T21:21:06.525Z,7.22
2023-04-20T21:24:08.257Z,7.14
2023-04-20T21:27:09.880Z,7.10
2023-04-20T21:30:12.201Z,7.05
2023-04-20T21:33:13.996Z,6.98
2023-04-20T21:36:16.841Z,6.94
2023-04-20T21:39:18.854Z,6.87
2023-04-20T21:42:20.841Z,6.84
2023-04-20T21:45:22.451Z,6.82
2023-04-20T21:48:24.047Z,6.79
2023-04-20T21:51:25.692Z,6.71
2023-04-20T21:54:27.364Z,6.65
2023-04-20T21:57:29.082Z,6.63
2023-04-20T22:00:30.797Z,6.62
2023-04-20T22:03:37.209Z,6.64
2023-04-20T22:06:39.556Z,6.66
2023-04-20T22:09:41.058Z,6.67
2023-04-20T22:12:42.788Z,6.66
2023-04-20T22:15:44.534Z,6.65
2023-04-20T22:18:46.210Z,6.66
2023-04-20T22:21:47.856Z,6.67
2023-04-20T22:24:53.700Z,6.67
2023-04-20T22:27:55.656Z,6.64
2023-04-20T22:30:57.385Z,6.63
2023-04-20T22:33:59.050Z,6.61
2023-04-20T22:37:00.688Z,6.61
2023-04-20T22:40:02.761Z,6.59
2023-04-20T22:43:04.441Z,6.54
2023-04-20T22:46:06.080Z,6.48
2023-04-20T22:49:07.637Z,6.41
2023-04-20T22:52:09.354Z,6.38
2023-04-20T22:55:11.302Z,6.37
2023-04-20T22:58:12.875Z,6.35
2023-04-20T23:01:14.585Z,6.40
2023-04-20T23:04:16.751Z,6.43
2023-04-20T23:07:18.636Z,6.43
2023-04-20T23:10:20.421Z,6.42
2023-04-20T23:13:22.202Z,6.44
2023-04-20T23:16:24.332Z,6.49
2023-04-20T23:19:26.002Z,6.50
2023-04-20T23:22:27.681Z,6.47
2023-04-20T23:25:29.435Z,6.47
2023-04-20T23:28:31.014Z,6.45
2023-04-20T23:31:32.698Z,6.45
2023-04-20T23:34:34.367Z,6.47
2023-04-20T23:37:36.022Z,6.48
2023-04-20T23:40:38.890Z,6.50
2023-04-20T23:43:40.747Z,6.51
2023-04-20T23:46:42.629Z,6.53
2023-04-20T23:49:44.380Z,6.54
2023-04-20T23:52:46.035Z,6.54
2023-04-20T23:55:47.745Z,6.56
2023-04-20T23:58:49.347Z,6.59
